Amarillo, TX (79120)

12:55 PM CDT on September 18, 2014 (GMT -0500)
Travis middle school | Change Station
CLOSE
Current Station
Personal Weather Station
Location: Amarillo, TX
Elevation: 3658 ft
Nearby Weather Stations
Active Advisory: Special Statement

Elev 3658 ft 35.24 °N, 101.81 °W | Updated 9 minutes ago

Mostly Cloudy
Mostly Cloudy
70.9 °F
Feels Like 70 °F
N
4.2
Wind Variable Wind from SE

Today
High -- | Low -- °F
--% Chance of Precip.
Yesterday
High -- | Low -- °F
Precip. -- in
7:32 AM 7:49 PM
Waning Crescent, 25% visible
Pressure 30.05 in
Visibility 10.0 miles
Clouds Mostly Cloudy 1300 ft
Mostly Cloudy 12000 ft
Heat Index 70 °F
Dew Point 66 °F
Humidity 84%
Rainfall 0.00 in
Snow Depth Not available.
UV 5 out of 12
Pollen 8.40 out of 12
Air Quality Not available.
Flu Activity Not available.
SPECI KAMA 181737Z 16011KT 10SM BKN013 BKN120 21/17 A3005 RMK AO2 T02110172

More Conditions Fewer Conditions

Pressure 30.05 in
Visibility 10.0 miles
Clouds Mostly Cloudy 1300 ft
Mostly Cloudy 12000 ft
Heat Index 70 °F
Dew Point 66 °F
Humidity 84%
Rainfall 0.00 in
Snow Depth Not available.
UV 5 out of 12
Pollen 8.40 out of 12
Air Quality Not available.
Flu Activity Not available.
SPECI KAMA 181737Z 16011KT 10SM BKN013 BKN120 21/17 A3005 RMK AO2 T02110172

More Conditions Fewer Conditions

10-Day Weather Forecast

Almanac

Astronomy

Sep. 18, 2014 Rise Set
Actual Time 7:32 AM CDT 7:49 PM CDT
Civil Twilight 7:06 AM CDT 8:14 PM CDT
Nautical Twilight 6:36 AM CDT 8:44 PM CDT
Astronomical Twilight 6:06 AM CDT 9:14 PM CDT
Moon 2:34 AM CDT 4:34 PM CDT
Length of Visible Light 13h 08m
Length of Day
12h 17m
Tomorrow will be 2m 12s shorter.
Waning Crescent, 25% of the Moon is Illuminated
Today
Waning Crescent
Sep 24
New
Oct 1
First Quarter
Oct 8
Full
Oct 15
Last Quarter

Today's Extremes

State Highs State Lows

Community

WunderPhotos

Upload Photos

1,754,409 photos uploaded!

Nearby

Snow Depth

Station Depth Elevation
No new snow has been reported.

Earthquake Activity

City Distance Mag. Time & Date
No recent earthquake activity has been reported nearby.
Minimum magnitude displayed is 2.5.

Coastal Water Temperatures

Place Temperature
No Stations Reporting

Nearby Weather Stations